Time;durP1;ratioP1;P1;durP2;ratioP2;P2;SDS_P1;SDS_P2;PMS_P1;PMS_P2;Temp;Humidity;BMP_temperature;BMP_pressure;BME280_temperature;BME280_humidity;BME280_pressure;Samples;Min_cycle;Max_cycle;Signal;HPM_P1;HPM_P2
2024/03/14 00:00:08;;;;;;;3.70;2.88;;;21.00;54.30;;;;;;5077015;28;20082;-51
2024/03/14 00:02:35;;;;;;;4.35;3.05;;;21.10;54.10;;;;;;5072547;28;20115;-52
2024/03/14 00:05:01;;;;;;;4.20;2.80;;;21.10;54.10;;;;;;5071248;28;20504;-49
2024/03/14 00:07:27;;;;;;;4.00;3.20;;;21.10;54.10;;;;;;5049990;28;20032;-51
2024/03/14 00:09:52;;;;;;;3.80;3.25;;;21.10;54.30;;;;;;5050320;28;20036;-50
2024/03/14 00:12:18;;;;;;;3.33;2.67;;;21.00;54.30;;;;;;5062767;28;20459;-52
2024/03/14 00:14:50;;;;;;;4.05;2.92;;;21.00;54.60;;;;;;5072848;28;20042;-51
2024/03/14 00:17:18;;;;;;;4.10;2.50;;;20.90;55.30;;;;;;5068438;28;20112;-50
2024/03/14 00:19:47;;;;;;;4.32;2.78;;;20.80;54.80;;;;;;5075087;28;20094;-55
2024/03/14 00:22:13;;;;;;;4.38;2.58;;;20.70;55.00;;;;;;5063817;28;20397;-51
2024/03/14 00:24:41;;;;;;;3.58;2.70;;;20.70;55.10;;;;;;5046105;28;20520;-51
2024/03/14 00:27:07;;;;;;;3.78;2.85;;;20.60;55.30;;;;;;5055492;28;20036;-53
2024/03/14 00:29:33;;;;;;;4.55;2.88;;;20.50;55.40;;;;;;5051640;28;23995;-53
2024/03/14 00:32:01;;;;;;;3.22;2.47;;;20.50;55.60;;;;;;5061583;28;20036;-54
2024/03/14 00:34:26;;;;;;;4.25;2.70;;;20.50;55.70;;;;;;5048732;28;20057;-54
2024/03/14 00:36:53;;;;;;;3.42;2.63;;;20.40;55.80;;;;;;5054603;28;20068;-48
2024/03/14 00:39:19;;;;;;;4.38;2.60;;;20.30;55.90;;;;;;5048588;28;20532;-55
2024/03/14 00:41:45;;;;;;;3.55;2.80;;;20.30;56.10;;;;;;5066634;28;20049;-49
2024/03/14 00:44:10;;;;;;;2.95;2.60;;;20.20;56.10;;;;;;5072222;28;20078;-51
2024/03/14 00:46:36;;;;;;;3.42;2.35;;;20.20;56.20;;;;;;5072230;28;20452;-50
2024/03/14 00:49:02;;;;;;;3.45;2.60;;;20.10;56.30;;;;;;5071768;28;20532;-53
2024/03/14 00:51:28;;;;;;;3.40;2.47;;;20.00;56.40;;;;;;5064954;28;20043;-58
2024/03/14 00:53:55;;;;;;;2.60;2.40;;;20.00;56.50;;;;;;5071027;28;20028;-52
2024/03/14 00:56:21;;;;;;;2.67;2.25;;;20.00;56.60;;;;;;5064225;28;20103;-55
2024/03/14 00:58:47;;;;;;;3.05;2.28;;;19.90;56.60;;;;;;5064551;28;20115;-50
2024/03/14 01:01:13;;;;;;;3.20;2.20;;;19.90;56.70;;;;;;5057036;28;20021;-49
2024/03/14 01:03:42;;;;;;;2.65;2.10;;;19.90;56.90;;;;;;5052770;28;20087;-51
2024/03/14 01:06:11;;;;;;;3.25;2.10;;;19.80;56.90;;;;;;5051798;28;20025;-56
2024/03/14 01:08:37;;;;;;;2.67;2.25;;;19.80;57.00;;;;;;5047042;28;20029;-47
2024/03/14 01:11:03;;;;;;;3.00;1.88;;;19.70;57.00;;;;;;5058314;28;20028;-46
2024/03/14 01:13:28;;;;;;;2.85;2.10;;;19.70;57.10;;;;;;5068804;28;20020;-48
2024/03/14 01:15:54;;;;;;;3.20;2.25;;;19.70;57.20;;;;;;5076345;28;20036;-51
2024/03/14 01:18:20;;;;;;;2.83;2.42;;;19.60;57.20;;;;;;5071016;28;20435;-54
2024/03/14 01:20:45;;;;;;;3.30;2.42;;;19.60;57.30;;;;;;5072905;28;20035;-50
2024/03/14 01:23:11;;;;;;;2.65;2.22;;;19.60;57.40;;;;;;5066707;28;20028;-52
2024/03/14 01:25:37;;;;;;;2.20;1.85;;;19.60;57.40;;;;;;5071779;28;20485;-48
2024/03/14 01:28:03;;;;;;;2.53;1.85;;;19.60;57.50;;;;;;5054721;28;20044;-52
2024/03/14 01:30:29;;;;;;;3.05;2.25;;;19.50;57.60;;;;;;5067897;28;20112;-54
2024/03/14 01:32:55;;;;;;;3.60;2.10;;;19.50;57.60;;;;;;5072220;28;20111;-50
2024/03/14 01:35:20;;;;;;;3.55;2.00;;;19.50;57.60;;;;;;5078935;28;20032;-54
2024/03/14 01:37:46;;;;;;;3.15;2.25;;;19.40;57.60;;;;;;5075397;28;20114;-48
2024/03/14 01:40:12;;;;;;;3.72;1.90;;;19.40;57.70;;;;;;5076847;28;20024;-50
2024/03/14 01:42:45;;;;;;;2.22;1.65;;;19.40;57.70;;;;;;5072148;28;20032;-47
2024/03/14 01:45:14;;;;;;;2.40;1.90;;;19.40;57.70;;;;;;5053801;28;20115;-49
2024/03/14 01:47:43;;;;;;;2.42;2.10;;;19.40;57.80;;;;;;5071175;28;20044;-50
2024/03/14 01:50:11;;;;;;;3.17;1.80;;;19.40;57.80;;;;;;5077732;28;20400;-49
2024/03/14 01:52:36;;;;;;;2.83;2.35;;;19.30;57.80;;;;;;5071363;28;20039;-60
2024/03/14 01:55:03;;;;;;;3.00;2.10;;;19.30;57.90;;;;;;5078494;28;20032;-52
2024/03/14 01:57:30;;;;;;;3.22;2.20;;;19.30;58.00;;;;;;5070073;28;20072;-50
2024/03/14 01:59:58;;;;;;;2.72;2.05;;;19.30;58.00;;;;;;5074659;28;20028;-51
2024/03/14 02:02:24;;;;;;;2.53;1.92;;;19.30;58.00;;;;;;5074941;28;20093;-49
2024/03/14 02:05:10;;;;;;;2.00;1.70;;;19.20;58.00;;;;;;5077327;28;20059;-51
2024/03/14 02:07:39;;;;;;;2.47;1.80;;;19.20;58.00;;;;;;5063495;28;20032;-49
2024/03/14 02:10:06;;;;;;;2.22;1.60;;;19.20;58.00;;;;;;5071511;28;20033;-51
2024/03/14 02:12:33;;;;;;;2.38;2.00;;;19.20;58.10;;;;;;5074648;28;20500;-51
2024/03/14 02:15:01;;;;;;;2.00;1.80;;;19.20;58.20;;;;;;5061515;28;20174;-52
2024/03/14 02:17:26;;;;;;;1.92;1.52;;;19.20;58.20;;;;;;5049089;28;24535;-49
2024/03/14 02:19:52;;;;;;;2.08;1.83;;;19.20;58.20;;;;;;5055315;28;20274;-51
2024/03/14 02:22:20;;;;;;;1.98;1.77;;;19.10;58.10;;;;;;5048825;28;20488;-51
2024/03/14 02:24:47;;;;;;;1.58;1.40;;;19.20;58.20;;;;;;5061354;28;20110;-51
2024/03/14 02:27:13;;;;;;;2.88;1.92;;;19.10;58.20;;;;;;5070166;28;20036;-49
2024/03/14 02:29:39;;;;;;;2.00;1.80;;;19.10;58.20;;;;;;5075106;28;20039;-51
2024/03/14 02:32:05;;;;;;;1.50;1.40;;;19.10;58.20;;;;;;5076740;28;20032;-51
2024/03/14 02:34:30;;;;;;;1.73;1.40;;;19.10;58.30;;;;;;5076840;28;20086;-49
2024/03/14 02:36:56;;;;;;;2.40;1.38;;;19.10;58.30;;;;;;5072608;28;20047;-49
2024/03/14 02:39:26;;;;;;;2.40;1.60;;;19.00;58.30;;;;;;5077296;28;20121;-52
2024/03/14 02:41:52;;;;;;;2.00;1.52;;;19.00;58.40;;;;;;5072017;28;20039;-50
2024/03/14 02:44:18;;;;;;;1.50;1.38;;;19.00;58.40;;;;;;5073971;28;20025;-52
2024/03/14 02:46:45;;;;;;;1.90;1.50;;;19.00;58.40;;;;;;5071050;28;20692;-51
2024/03/14 02:49:14;;;;;;;1.70;1.27;;;19.00;58.30;;;;;;5071996;28;20032;-50
2024/03/14 02:51:39;;;;;;;1.67;1.52;;;19.10;58.20;;;;;;5052404;28;20031;-51
2024/03/14 02:54:05;;;;;;;1.85;1.48;;;19.10;58.00;;;;;;5055897;28;20028;-53
2024/03/14 02:56:33;;;;;;;2.15;1.60;;;19.20;57.70;;;;;;5053145;28;20097;-52
2024/03/14 02:58:59;;;;;;;2.53;1.50;;;19.40;57.40;;;;;;5042856;28;20032;-51
2024/03/14 03:01:26;;;;;;;2.03;1.65;;;19.60;57.10;;;;;;5046163;28;20041;-51
2024/03/14 03:03:53;;;;;;;1.98;1.42;;;19.80;56.60;;;;;;5043671;28;20575;-52
2024/03/14 03:06:20;;;;;;;1.38;1.25;;;19.90;56.20;;;;;;5044789;28;20052;-52
2024/03/14 03:08:45;;;;;;;2.47;2.00;;;20.20;55.80;;;;;;5049697;28;20109;-51
2024/03/14 03:11:12;;;;;;;2.70;1.60;;;20.30;55.50;;;;;;5051075;28;20323;-51
2024/03/14 03:13:37;;;;;;;1.52;1.10;;;20.40;55.30;;;;;;5067183;28;20035;-52
2024/03/14 03:16:04;;;;;;;1.38;1.15;;;20.50;55.20;;;;;;5071340;28;20036;-54
2024/03/14 03:18:30;;;;;;;1.90;1.60;;;20.60;55.70;;;;;;5071840;28;20394;-51
2024/03/14 03:20:56;;;;;;;1.27;1.13;;;20.60;55.00;;;;;;5071558;28;20031;-52
2024/03/14 03:23:21;;;;;;;1.40;1.30;;;20.60;55.00;;;;;;5069829;28;20480;-52
2024/03/14 03:25:47;;;;;;;1.88;1.25;;;20.60;55.00;;;;;;5071011;28;20039;-51
2024/03/14 03:28:13;;;;;;;1.80;1.50;;;20.60;55.00;;;;;;5072752;28;20527;-50
2024/03/14 03:30:43;;;;;;;1.33;1.15;;;20.60;55.10;;;;;;5075901;28;20115;-50
2024/03/14 03:33:17;;;;;;;1.58;1.23;;;20.60;55.20;;;;;;5068802;28;20039;-51
2024/03/14 03:35:48;;;;;;;2.00;1.27;;;20.50;55.30;;;;;;5048818;28;20529;-52
2024/03/14 03:38:14;;;;;;;1.15;1.00;;;20.50;55.40;;;;;;5041272;28;20083;-50
2024/03/14 03:40:43;;;;;;;1.83;1.00;;;20.40;55.50;;;;;;5052774;28;20838;-51
2024/03/14 03:43:09;;;;;;;1.20;0.95;;;20.40;55.60;;;;;;5058208;28;20067;-50
2024/03/14 03:45:35;;;;;;;1.95;1.17;;;20.30;55.70;;;;;;5055619;28;20063;-52
2024/03/14 03:48:01;;;;;;;1.58;1.33;;;20.30;55.80;;;;;;5049528;28;21348;-50
2024/03/14 03:50:27;;;;;;;1.40;1.20;;;20.30;56.00;;;;;;5047664;28;20037;-52
2024/03/14 03:52:53;;;;;;;1.70;1.05;;;20.20;56.10;;;;;;5049859;28;20037;-50
2024/03/14 03:55:19;;;;;;;1.85;1.33;;;20.10;56.10;;;;;;5053396;28;20039;-53
2024/03/14 03:57:45;;;;;;;1.40;1.10;;;20.10;56.30;;;;;;5051743;28;20082;-59
2024/03/14 04:02:57;;;;;;;2.53;0.95;;;20.00;56.40;;;;;;5052246;28;20120;-49
2024/03/14 04:05:25;;;;;;;1.42;1.27;;;20.00;56.50;;;;;;5064594;28;20052;-50
2024/03/14 04:07:55;;;;;;;1.55;1.33;;;19.90;56.60;;;;;;5064536;28;20036;-50
2024/03/14 04:10:23;;;;;;;1.40;1.10;;;19.90;56.70;;;;;;5070034;28;20028;-50
2024/03/14 04:12:49;;;;;;;0.93;0.85;;;19.80;56.70;;;;;;5065405;28;20028;-51
2024/03/14 04:15:15;;;;;;;0.95;0.90;;;19.80;56.80;;;;;;5075406;28;20114;-50
2024/03/14 04:17:41;;;;;;;1.10;0.70;;;19.70;56.90;;;;;;5072016;28;20147;-49
2024/03/14 04:20:17;;;;;;;1.85;0.90;;;19.70;57.60;;;;;;5075420;28;20063;-49
2024/03/14 04:22:44;;;;;;;1.05;0.70;;;19.70;57.10;;;;;;5067937;27;20082;-50
2024/03/14 04:25:14;;;;;;;1.00;0.90;;;19.60;57.20;;;;;;5076611;27;20063;-50
2024/03/14 04:27:45;;;;;;;1.33;1.00;;;19.60;57.20;;;;;;5056477;28;20378;-52
2024/03/14 04:30:12;;;;;;;2.42;1.38;;;19.60;57.30;;;;;;5049561;28;20504;-49
2024/03/14 04:32:39;;;;;;;1.00;0.90;;;19.50;57.30;;;;;;5054926;28;20797;-50
2024/03/14 04:35:05;;;;;;;1.00;0.85;;;19.60;57.40;;;;;;5072696;28;20101;-50
2024/03/14 04:37:31;;;;;;;1.25;1.15;;;19.50;57.40;;;;;;5071512;28;20055;-49
2024/03/14 04:39:58;;;;;;;1.10;1.00;;;19.50;57.40;;;;;;5073878;28;20032;-49
2024/03/14 04:42:23;;;;;;;1.38;1.27;;;19.50;57.50;;;;;;5073374;28;20052;-50
2024/03/14 04:44:50;;;;;;;1.17;1.00;;;19.40;57.50;;;;;;5072694;28;20071;-49
2024/03/14 04:47:16;;;;;;;1.10;1.00;;;19.40;57.50;;;;;;5073140;28;20035;-50
2024/03/14 04:49:42;;;;;;;1.58;1.00;;;19.40;57.60;;;;;;5073627;28;20028;-49
2024/03/14 04:52:07;;;;;;;1.60;0.95;;;19.40;57.60;;;;;;5070041;28;20106;-49
2024/03/14 04:54:33;;;;;;;1.08;0.88;;;19.30;57.60;;;;;;5074887;28;20127;-50
2024/03/14 04:57:01;;;;;;;1.00;0.82;;;19.40;57.70;;;;;;5067092;28;20563;-53
2024/03/14 04:59:29;;;;;;;1.20;0.93;;;19.30;57.80;;;;;;5076086;28;20031;-54
2024/03/14 05:01:55;;;;;;;1.08;0.90;;;19.30;57.80;;;;;;5071288;28;20031;-51
2024/03/14 05:04:21;;;;;;;1.10;1.00;;;19.30;57.80;;;;;;5076464;28;20024;-52
2024/03/14 05:06:47;;;;;;;1.05;0.70;;;19.30;57.80;;;;;;5062686;28;20493;-52
2024/03/14 05:09:13;;;;;;;0.80;0.70;;;19.30;57.80;;;;;;5074173;28;20043;-50
2024/03/14 05:11:39;;;;;;;1.17;0.77;;;19.30;57.90;;;;;;5073768;28;20044;-52
2024/03/14 05:14:06;;;;;;;1.70;1.08;;;19.20;57.80;;;;;;5071355;28;20024;-51
2024/03/14 05:16:33;;;;;;;0.88;0.85;;;19.20;57.90;;;;;;5073249;28;20423;-49
2024/03/14 05:18:58;;;;;;;0.80;0.80;;;19.20;57.90;;;;;;5071209;28;20040;-53
2024/03/14 05:21:24;;;;;;;1.05;0.95;;;19.20;57.90;;;;;;5072859;28;20031;-51
2024/03/14 05:23:50;;;;;;;0.82;0.70;;;19.20;57.90;;;;;;5070083;28;20505;-50
2024/03/14 05:26:16;;;;;;;1.00;0.90;;;19.20;57.90;;;;;;5070304;28;20040;-50
2024/03/14 05:28:41;;;;;;;1.10;0.90;;;19.20;58.00;;;;;;5073462;28;20032;-52
2024/03/14 05:31:07;;;;;;;1.10;0.98;;;19.20;58.00;;;;;;5072073;28;20027;-51
2024/03/14 05:33:32;;;;;;;0.90;0.80;;;19.20;58.00;;;;;;5073490;28;20085;-48
2024/03/14 05:35:58;;;;;;;1.10;0.82;;;19.20;58.20;;;;;;5070834;28;20040;-50
2024/03/14 05:38:23;;;;;;;1.20;0.80;;;19.10;58.00;;;;;;5074094;28;20082;-52
2024/03/14 05:40:52;;;;;;;1.70;0.80;;;19.10;58.10;;;;;;5071491;28;20555;-56
2024/03/14 05:43:19;;;;;;;1.52;0.95;;;19.10;58.10;;;;;;5072925;28;20025;-51
2024/03/14 05:45:45;;;;;;;1.05;0.98;;;19.10;58.20;;;;;;5066913;28;20039;-50
2024/03/14 05:48:13;;;;;;;2.42;0.70;;;19.10;58.10;;;;;;5073176;28;20028;-50
2024/03/14 05:50:39;;;;;;;1.30;0.90;;;19.00;58.10;;;;;;5067038;28;20036;-50
2024/03/14 05:53:05;;;;;;;1.00;0.70;;;19.10;58.20;;;;;;5072493;28;20473;-49
2024/03/14 05:55:30;;;;;;;1.73;0.98;;;19.00;58.20;;;;;;5070406;28;20035;-52
2024/03/14 05:57:56;;;;;;;1.13;0.80;;;19.00;58.20;;;;;;5068987;28;20044;-57
2024/03/14 06:00:22;;;;;;;1.40;0.77;;;19.00;58.30;;;;;;5071336;28;20035;-50
2024/03/14 06:02:47;;;;;;;1.08;0.88;;;19.00;58.20;;;;;;5072059;28;20033;-50
2024/03/14 06:05:14;;;;;;;0.88;0.68;;;19.00;58.20;;;;;;5074814;28;20039;-50
2024/03/14 06:07:40;;;;;;;1.10;0.82;;;19.00;58.30;;;;;;5075395;28;20163;-50
2024/03/14 06:10:07;;;;;;;0.68;0.68;;;19.00;58.30;;;;;;5072976;28;20642;-51
2024/03/14 06:12:32;;;;;;;1.52;0.88;;;19.00;58.20;;;;;;5079845;28;20032;-52
2024/03/14 06:14:58;;;;;;;0.77;0.77;;;19.00;58.80;;;;;;5070716;28;20039;-48
2024/03/14 06:17:25;;;;;;;1.58;0.80;;;19.00;58.10;;;;;;5080031;28;20039;-50
2024/03/14 06:19:50;;;;;;;0.93;0.80;;;19.00;58.00;;;;;;5069658;28;20075;-52
2024/03/14 06:22:16;;;;;;;4.30;0.93;;;19.00;57.90;;;;;;5077693;28;20070;-51
2024/03/14 06:24:43;;;;;;;2.15;0.93;;;19.00;58.00;;;;;;5075228;28;20047;-51
2024/03/14 06:27:12;;;;;;;1.42;1.00;;;19.00;57.90;;;;;;5076798;28;20024;-49
2024/03/14 06:29:38;;;;;;;1.58;1.00;;;19.10;57.90;;;;;;5071564;28;20821;-52
2024/03/14 06:32:04;;;;;;;1.20;0.73;;;19.10;57.80;;;;;;5075806;28;20040;-50
2024/03/14 06:34:30;;;;;;;1.23;1.05;;;19.10;57.70;;;;;;5071241;28;20032;-49
2024/03/14 06:36:57;;;;;;;1.10;0.80;;;19.20;57.70;;;;;;5075087;28;20040;-49
2024/03/14 06:39:25;;;;;;;2.13;1.05;;;19.20;57.60;;;;;;5070976;28;20546;-51
2024/03/14 06:41:52;;;;;;;0.85;0.70;;;19.30;57.50;;;;;;5074525;28;20041;-52
2024/03/14 06:44:18;;;;;;;2.30;1.00;;;19.30;57.40;;;;;;5074187;28;20166;-52
2024/03/14 06:46:43;;;;;;;1.48;0.90;;;19.40;57.40;;;;;;5075715;28;20118;-49
2024/03/14 06:49:12;;;;;;;1.92;1.00;;;19.40;57.30;;;;;;5072870;28;20032;-51
2024/03/14 06:51:38;;;;;;;0.75;0.75;;;19.40;57.10;;;;;;5078129;27;20461;-50
2024/03/14 06:54:04;;;;;;;1.30;1.10;;;19.50;57.10;;;;;;5069622;28;20032;-52
2024/03/14 06:56:30;;;;;;;1.00;0.80;;;19.50;57.00;;;;;;5075271;28;20036;-50
2024/03/14 06:58:55;;;;;;;1.50;0.98;;;19.50;56.90;;;;;;5069255;28;20030;-50
2024/03/14 07:01:21;;;;;;;1.85;1.02;;;19.50;56.90;;;;;;5076873;28;20025;-51
2024/03/14 07:03:47;;;;;;;1.10;0.95;;;19.60;56.90;;;;;;5070086;28;20374;-49
2024/03/14 07:06:14;;;;;;;1.27;1.10;;;19.60;56.80;;;;;;5074711;28;20027;-49
2024/03/14 07:08:42;;;;;;;1.45;0.80;;;19.60;56.80;;;;;;5069322;28;20024;-51
2024/03/14 07:11:11;;;;;;;1.95;1.10;;;19.60;56.70;;;;;;5072331;28;20059;-50
2024/03/14 07:13:37;;;;;;;1.80;1.02;;;19.60;56.70;;;;;;5075776;28;20025;-51
2024/03/14 07:16:09;;;;;;;1.73;1.05;;;19.60;56.70;;;;;;5072814;28;20064;-51
2024/03/14 07:18:36;;;;;;;3.25;1.08;;;19.70;56.70;;;;;;5074135;28;20028;-52
2024/03/14 07:21:03;;;;;;;1.80;1.20;;;19.70;56.70;;;;;;5072535;28;20454;-51
2024/03/14 07:23:31;;;;;;;3.03;1.13;;;19.70;56.70;;;;;;5079139;28;20236;-50
2024/03/14 07:25:58;;;;;;;1.23;0.93;;;19.70;56.70;;;;;;5056983;28;20771;-52
2024/03/14 07:28:24;;;;;;;2.40;1.27;;;19.70;56.70;;;;;;5055510;28;20512;-51
2024/03/14 07:30:49;;;;;;;3.00;1.45;;;19.70;56.70;;;;;;5074955;28;20025;-52
2024/03/14 07:33:15;;;;;;;2.20;1.27;;;19.60;56.70;;;;;;5071052;28;20069;-53
2024/03/14 07:35:44;;;;;;;1.25;1.00;;;19.60;56.80;;;;;;5065893;28;20047;-51
2024/03/14 07:38:10;;;;;;;1.30;1.20;;;19.60;56.80;;;;;;5075563;28;20035;-51
2024/03/14 07:40:36;;;;;;;2.83;1.45;;;19.60;57.00;;;;;;5072285;28;20078;-51
2024/03/14 07:43:02;;;;;;;1.83;1.27;;;19.50;56.90;;;;;;5069524;28;20025;-62
2024/03/14 07:45:27;;;;;;;6.05;1.60;;;19.50;57.40;;;;;;5078879;28;20143;-49
2024/03/14 07:47:53;;;;;;;4.88;2.80;;;19.60;57.90;;;;;;5072156;28;20040;-51
2024/03/14 07:50:19;;;;;;;5.03;2.83;;;19.60;58.20;;;;;;5072285;28;20491;-48
2024/03/14 07:52:44;;;;;;;5.82;2.83;;;19.60;58.00;;;;;;5066765;28;20039;-52
2024/03/14 07:55:10;;;;;;;6.57;2.67;;;19.60;57.80;;;;;;5055122;28;20372;-51
2024/03/14 07:57:36;;;;;;;6.03;3.28;;;19.50;57.90;;;;;;5051423;28;20082;-51
2024/03/14 08:00:15;;;;;;;12.07;3.70;;;19.50;58.00;;;;;;5057574;28;20107;-51
2024/03/14 08:02:42;;;;;;;5.65;3.30;;;19.50;58.20;;;;;;5027536;28;20033;-52
2024/03/14 08:05:08;;;;;;;9.68;3.13;;;19.40;58.10;;;;;;5068534;28;20032;-49
2024/03/14 08:07:34;;;;;;;5.28;3.10;;;19.40;58.20;;;;;;5044695;28;20059;-50
2024/03/14 08:10:00;;;;;;;6.15;3.13;;;19.40;58.30;;;;;;5051019;28;20063;-51
2024/03/14 08:12:31;;;;;;;6.60;3.28;;;19.30;58.20;;;;;;5065972;28;20094;-49
2024/03/14 08:15:05;;;;;;;4.20;2.88;;;19.30;58.30;;;;;;5068425;28;20093;-50
2024/03/14 08:17:30;;;;;;;5.60;3.10;;;19.30;58.30;;;;;;5072476;28;20056;-50
2024/03/14 08:19:56;;;;;;;7.07;2.95;;;19.30;58.40;;;;;;5068805;28;20139;-51
2024/03/14 08:22:24;;;;;;;6.60;2.95;;;19.20;58.40;;;;;;5064214;28;20032;-51
2024/03/14 08:24:52;;;;;;;8.15;3.50;;;19.20;58.50;;;;;;5054196;28;20039;-51
2024/03/14 08:27:19;;;;;;;7.43;2.85;;;19.20;58.50;;;;;;5053974;28;20442;-50
2024/03/14 08:29:46;;;;;;;8.02;3.20;;;19.20;58.50;;;;;;5048606;28;20045;-49
2024/03/14 08:32:14;;;;;;;6.75;3.50;;;19.20;58.50;;;;;;5050951;28;20149;-51
2024/03/14 08:34:40;;;;;;;5.72;3.33;;;19.20;58.40;;;;;;5068461;28;20041;-49
2024/03/14 08:37:06;;;;;;;6.15;2.72;;;19.20;58.40;;;;;;5066696;28;20382;-50
2024/03/14 08:39:32;;;;;;;8.63;2.85;;;19.20;58.40;;;;;;5073675;28;20028;-49
2024/03/14 08:41:58;;;;;;;5.95;2.60;;;19.20;58.40;;;;;;5064623;28;20402;-50
2024/03/14 08:44:26;;;;;;;7.03;3.13;;;19.20;58.40;;;;;;5068875;28;20064;-52
2024/03/14 08:46:52;;;;;;;4.75;3.05;;;19.20;58.40;;;;;;5070116;28;20055;-51
2024/03/14 08:49:18;;;;;;;6.05;2.90;;;19.20;59.00;;;;;;5064364;28;20071;-48
2024/03/14 08:51:44;;;;;;;6.97;3.10;;;19.20;58.90;;;;;;5067245;28;20474;-51
2024/03/14 08:54:28;;;;;;;7.70;3.40;;;19.30;59.90;;;;;;5063442;28;20671;-51
2024/03/14 08:56:58;;;;;;;5.75;3.53;;;19.40;60.00;;;;;;5068325;28;20504;-54
2024/03/14 08:59:24;;;;;;;7.22;3.47;;;19.50;60.10;;;;;;5052681;28;20025;-58
2024/03/14 09:01:50;;;;;;;7.85;3.40;;;19.60;59.70;;;;;;5068916;28;20074;-51
2024/03/14 09:04:16;;;;;;;4.43;3.20;;;19.60;59.50;;;;;;5070141;28;20055;-48
2024/03/14 09:06:42;;;;;;;9.35;3.75;;;19.50;59.20;;;;;;5072160;28;20759;-51
2024/03/14 09:09:08;;;;;;;7.88;2.92;;;19.50;59.30;;;;;;5075095;28;20058;-51
2024/03/14 09:11:34;;;;;;;8.00;3.10;;;19.40;59.00;;;;;;5074515;28;20130;-50
2024/03/14 09:14:00;;;;;;;6.20;3.30;;;19.40;59.10;;;;;;5072863;28;20116;-50
2024/03/14 09:16:26;;;;;;;5.65;3.05;;;19.40;59.00;;;;;;5071690;28;20041;-51
2024/03/14 09:18:52;;;;;;;6.30;3.08;;;19.30;58.90;;;;;;5070592;28;20082;-51
2024/03/14 09:21:19;;;;;;;5.07;2.90;;;19.30;58.90;;;;;;5073514;28;20067;-50
2024/03/14 09:23:45;;;;;;;11.02;3.78;;;19.30;59.00;;;;;;5075166;28;20051;-51
2024/03/14 09:26:11;;;;;;;5.85;2.88;;;19.30;58.90;;;;;;5075325;28;20048;-51
2024/03/14 09:28:38;;;;;;;6.00;3.05;;;19.30;58.80;;;;;;5072819;28;20085;-51
2024/03/14 09:31:08;;;;;;;9.43;3.78;;;19.30;58.90;;;;;;5073919;28;20105;-51
2024/03/14 09:33:34;;;;;;;4.93;2.90;;;19.30;58.80;;;;;;5074665;28;20040;-51
2024/03/14 09:36:00;;;;;;;3.05;2.53;;;19.20;58.70;;;;;;5072090;28;20040;-52
2024/03/14 09:38:27;;;;;;;8.15;2.97;;;19.30;58.70;;;;;;5073401;28;20039;-50
2024/03/14 09:40:53;;;;;;;6.60;3.13;;;19.20;58.70;;;;;;5074754;28;20614;-51
2024/03/14 09:43:19;;;;;;;5.47;2.83;;;19.30;58.70;;;;;;5076571;28;20038;-52
2024/03/14 09:45:45;;;;;;;4.65;2.40;;;19.30;58.60;;;;;;5052606;28;20474;-50
2024/03/14 09:48:11;;;;;;;3.55;2.38;;;19.30;58.60;;;;;;5058983;28;20044;-51
2024/03/14 09:50:37;;;;;;;8.10;3.40;;;19.30;58.60;;;;;;5054969;28;20074;-51
2024/03/14 09:53:03;;;;;;;3.53;2.65;;;19.30;58.50;;;;;;5054046;28;20036;-49
2024/03/14 09:55:30;;;;;;;4.45;2.47;;;19.30;58.60;;;;;;5054524;28;20041;-56
2024/03/14 09:58:04;;;;;;;5.65;2.45;;;19.30;58.60;;;;;;5048598;28;20037;-51
2024/03/14 10:00:30;;;;;;;4.47;2.60;;;19.30;58.50;;;;;;5052831;28;20171;-49
2024/03/14 10:02:58;;;;;;;3.97;2.70;;;19.30;58.50;;;;;;5052371;28;20061;-54
2024/03/14 10:05:24;;;;;;;3.88;2.65;;;19.30;58.50;;;;;;5051329;28;20090;-53
2024/03/14 10:07:50;;;;;;;5.93;2.60;;;19.20;58.50;;;;;;5059501;28;20056;-52
2024/03/14 10:10:16;;;;;;;8.60;2.50;;;19.30;58.50;;;;;;5054178;28;20051;-49
2024/03/14 10:12:52;;;;;;;4.65;2.30;;;19.20;58.50;;;;;;5049981;28;20037;-48
2024/03/14 10:15:20;;;;;;;3.47;2.17;;;19.30;58.50;;;;;;5051998;28;20036;-54
2024/03/14 10:17:51;;;;;;;3.50;2.17;;;19.30;58.40;;;;;;5057489;28;20810;-55
2024/03/14 10:20:17;;;;;;;3.95;3.03;;;19.30;58.40;;;;;;5071575;28;20089;-55
2024/03/14 10:22:43;;;;;;;4.10;2.55;;;19.30;58.40;;;;;;5066270;28;20063;-54
2024/03/14 10:25:12;;;;;;;3.28;2.63;;;19.30;58.40;;;;;;5066173;28;20661;-52
2024/03/14 10:27:41;;;;;;;3.38;1.90;;;19.30;58.40;;;;;;5052528;28;20037;-55
2024/03/14 10:30:08;;;;;;;3.40;2.30;;;19.30;58.30;;;;;;5051185;28;20036;-52
2024/03/14 10:32:34;;;;;;;5.25;2.30;;;19.30;58.30;;;;;;5050295;28;20051;-51
2024/03/14 10:35:01;;;;;;;4.25;2.55;;;19.40;58.30;;;;;;5052636;28;20044;-48
2024/03/14 10:37:30;;;;;;;3.13;2.28;;;19.40;58.30;;;;;;5070933;22;20784;-57
2024/03/14 10:39:59;;;;;;;3.70;2.00;;;19.30;58.20;;;;;;5053554;28;20101;-51
2024/03/14 10:42:28;;;;;;;3.17;2.45;;;19.30;58.20;;;;;;5050197;28;20036;-49
2024/03/14 10:44:54;;;;;;;6.72;2.85;;;19.30;58.20;;;;;;5050434;28;20033;-52
2024/03/14 10:47:21;;;;;;;4.65;2.30;;;19.40;58.20;;;;;;5054317;28;20119;-53
2024/03/14 10:49:47;;;;;;;4.18;2.55;;;19.30;58.10;;;;;;5052839;28;20086;-52
2024/03/14 10:52:15;;;;;;;3.20;1.80;;;19.40;58.30;;;;;;5058010;28;20052;-57
2024/03/14 10:54:46;;;;;;;5.25;2.25;;;19.30;58.10;;;;;;5057959;28;20102;-55
2024/03/14 10:57:15;;;;;;;3.00;2.15;;;19.30;58.20;;;;;;5059635;28;20048;-49
2024/03/14 10:59:44;;;;;;;3.55;2.40;;;19.40;58.20;;;;;;5055149;28;20098;-55
2024/03/14 11:02:14;;;;;;;3.78;2.35;;;19.40;58.20;;;;;;5057259;28;20039;-55
2024/03/14 11:04:40;;;;;;;3.92;2.22;;;19.40;58.20;;;;;;5056743;28;20048;-55
2024/03/14 11:07:10;;;;;;;3.38;2.13;;;19.40;58.20;;;;;;5056635;28;20033;-52
2024/03/14 11:09:46;;;;;;;4.13;2.03;;;19.40;58.20;;;;;;5059369;28;20074;-52
2024/03/14 11:12:20;;;;;;;3.88;2.50;;;19.30;58.20;;;;;;5043732;28;20033;-50
2024/03/14 11:14:52;;;;;;;3.00;2.20;;;19.40;58.30;;;;;;5057147;28;20090;-52
2024/03/14 11:17:20;;;;;;;4.97;1.83;;;19.30;58.30;;;;;;5058318;28;20078;-56
2024/03/14 11:19:52;;;;;;;2.65;1.98;;;19.30;58.30;;;;;;5056987;28;20052;-50
2024/03/14 11:22:19;;;;;;;2.90;2.15;;;19.30;58.30;;;;;;5056199;28;20032;-53
2024/03/14 11:24:48;;;;;;;3.83;1.90;;;19.40;58.30;;;;;;5054036;28;20036;-49
2024/03/14 11:27:15;;;;;;;2.85;2.10;;;19.30;58.20;;;;;;5059420;28;20032;-53
2024/03/14 11:29:42;;;;;;;2.90;2.08;;;19.30;58.30;;;;;;5056567;28;20020;-47
2024/03/14 11:32:35;;;;;;;2.88;1.63;;;19.30;58.20;;;;;;5055663;28;20112;-55
2024/03/14 11:35:33;;;;;;;4.15;1.88;;;19.40;58.30;;;;;;5058950;28;20036;-51
2024/03/14 11:37:58;;;;;;;3.30;2.10;;;19.40;58.20;;;;;;5051680;28;20110;-51
2024/03/14 11:40:30;;;;;;;3.63;1.92;;;19.30;58.20;;;;;;5057240;28;20433;-56
2024/03/14 11:42:56;;;;;;;3.67;2.08;;;19.40;58.30;;;;;;5057289;28;20036;-48
2024/03/14 11:45:23;;;;;;;5.13;2.47;;;19.30;58.30;;;;;;5058964;28;20545;-55
2024/03/14 11:47:50;;;;;;;2.97;1.67;;;19.30;58.30;;;;;;5056087;28;20032;-50
2024/03/14 11:50:22;;;;;;;3.40;2.08;;;19.30;58.30;;;;;;5048490;28;20032;-50
2024/03/14 11:52:53;;;;;;;4.10;1.88;;;19.30;58.30;;;;;;5051013;28;20390;-49
2024/03/14 11:55:19;;;;;;;3.03;1.90;;;19.30;58.50;;;;;;5055399;28;20132;-50
2024/03/14 11:57:48;;;;;;;3.03;1.70;;;19.30;58.40;;;;;;5046788;28;20048;-50
2024/03/14 12:00:20;;;;;;;2.97;2.00;;;19.30;58.40;;;;;;5054308;28;20029;-49
2024/03/14 12:02:49;;;;;;;3.38;1.88;;;19.30;58.40;;;;;;5054438;28;20401;-49
2024/03/14 12:05:25;;;;;;;7.75;1.83;;;19.30;58.40;;;;;;5053886;28;20156;-55
2024/03/14 12:07:55;;;;;;;3.03;1.58;;;19.30;58.30;;;;;;5057746;28;20032;-53
2024/03/14 12:10:22;;;;;;;1.85;1.50;;;19.30;58.40;;;;;;5056773;28;20033;-48
2024/03/14 12:12:51;;;;;;;2.20;1.77;;;19.30;58.30;;;;;;5058249;28;20032;-49
2024/03/14 12:15:17;;;;;;;2.40;1.77;;;19.30;58.40;;;;;;5044019;28;20036;-55
2024/03/14 12:17:44;;;;;;;2.28;1.50;;;19.30;58.30;;;;;;5057335;28;20024;-53
2024/03/14 12:20:12;;;;;;;3.42;1.58;;;19.30;58.30;;;;;;5056175;28;20081;-49
2024/03/14 12:22:42;;;;;;;2.97;1.90;;;19.30;58.30;;;;;;5058020;28;20068;-52
2024/03/14 12:25:13;;;;;;;2.75;1.50;;;19.30;58.40;;;;;;5056123;28;20029;-49
2024/03/14 12:27:39;;;;;;;2.58;1.88;;;19.30;58.40;;;;;;5051714;28;20505;-57
2024/03/14 12:30:05;;;;;;;3.33;1.63;;;19.30;58.40;;;;;;5057295;28;20048;-49
2024/03/14 12:32:32;;;;;;;2.25;1.73;;;19.30;58.50;;;;;;5058632;28;20062;-50
2024/03/14 12:35:01;;;;;;;2.17;1.40;;;19.30;58.40;;;;;;5054325;28;20056;-55
2024/03/14 12:37:26;;;;;;;2.65;1.70;;;19.30;58.50;;;;;;5056066;28;20449;-49
2024/03/14 12:39:53;;;;;;;2.38;1.40;;;19.20;58.40;;;;;;5054506;28;20044;-49
2024/03/14 12:42:19;;;;;;;2.38;1.65;;;19.30;58.50;;;;;;5055764;28;20039;-48
2024/03/14 12:44:46;;;;;;;2.10;1.58;;;19.20;58.50;;;;;;5054607;28;20464;-48
2024/03/14 12:47:13;;;;;;;2.50;1.52;;;19.20;58.40;;;;;;5067663;28;20489;-51
2024/03/14 12:49:39;;;;;;;2.28;1.60;;;19.20;58.50;;;;;;5058432;28;20052;-54